Time;durP1;ratioP1;P1;durP2;ratioP2;P2;SDS_P1;SDS_P2;PMS_P1;PMS_P2;Temp;Humidity;BMP_temperature;BMP_pressure;BME280_temperature;BME280_humidity;BME280_pressure;Samples;Min_cycle;Max_cycle;Signal;HPM_P1;HPM_P2
2023/02/27 00:00:13;;;;;;;6.65;3.22;;;;;;;;;;5047849;28;20032;-69
2023/02/27 00:02:39;;;;;;;5.55;2.75;;;;;;;;;;5032036;28;20047;-66
2023/02/27 00:05:06;;;;;;;4.32;2.90;;;;;;;;;;5033536;28;20424;-64
2023/02/27 00:07:31;;;;;;;5.68;2.75;;;;;;;;;;5027956;28;20472;-70
2023/02/27 00:09:56;;;;;;;5.33;2.63;;;;;;;;;;5059122;28;20037;-70
2023/02/27 00:12:21;;;;;;;4.40;2.50;;;;;;;;;;5040701;28;20282;-71
2023/02/27 00:14:47;;;;;;;4.87;2.60;;;;;;;;;;5045109;28;20040;-66
2023/02/27 00:17:12;;;;;;;6.55;3.13;;;;;;;;;;5045521;28;20040;-68
2023/02/27 00:19:37;;;;;;;5.83;3.07;;;;;;;;;;5064688;28;20119;-69
2023/02/27 00:22:02;;;;;;;5.45;3.08;;;;;;;;;;5044967;28;20298;-64
2023/02/27 00:24:27;;;;;;;5.20;2.90;;;;;;;;;;5046095;28;20053;-68
2023/02/27 00:26:53;;;;;;;4.95;2.83;;;;;;;;;;5045616;28;20374;-69
2023/02/27 00:29:18;;;;;;;5.20;2.77;;;;;;;;;;5065273;28;20036;-69
2023/02/27 00:31:43;;;;;;;6.38;3.30;;;;;;;;;;5047919;28;20467;-65
2023/02/27 00:34:09;;;;;;;5.17;3.07;;;;;;;;;;5065305;28;20182;-70
2023/02/27 00:36:34;;;;;;;4.10;2.53;;;;;;;;;;5065332;28;20283;-67
2023/02/27 00:38:59;;;;;;;5.77;2.50;;;;;;;;;;5062222;28;20299;-69
2023/02/27 00:41:24;;;;;;;5.00;2.75;;;;;;;;;;5061205;28;20842;-68
2023/02/27 00:43:50;;;;;;;5.63;2.70;;;;;;;;;;5051003;28;20061;-68
2023/02/27 00:46:15;;;;;;;5.17;2.73;;;;;;;;;;5065373;28;20283;-69
2023/02/27 00:48:40;;;;;;;4.78;2.90;;;;;;;;;;5065065;28;20116;-65
2023/02/27 00:51:05;;;;;;;5.33;2.90;;;;;;;;;;5065105;28;20058;-63
2023/02/27 00:53:31;;;;;;;5.90;3.17;;;;;;;;;;5046496;28;20279;-68
2023/02/27 00:55:56;;;;;;;4.53;2.90;;;;;;;;;;5044596;28;20361;-66
2023/02/27 00:58:21;;;;;;;4.60;2.40;;;;;;;;;;5064809;28;20767;-67
2023/02/27 01:00:46;;;;;;;4.70;2.87;;;;;;;;;;5065298;28;20544;-68
2023/02/27 01:03:11;;;;;;;4.90;2.97;;;;;;;;;;5032072;28;20128;-67
2023/02/27 01:05:37;;;;;;;6.10;2.97;;;;;;;;;;5064719;28;20029;-65
2023/02/27 01:08:02;;;;;;;4.40;2.57;;;;;;;;;;5033775;28;20795;-66
2023/02/27 01:10:27;;;;;;;5.40;2.97;;;;;;;;;;5064572;28;20271;-64
2023/02/27 01:12:52;;;;;;;5.43;3.17;;;;;;;;;;5063532;28;20066;-67
2023/02/27 01:15:18;;;;;;;5.00;2.90;;;;;;;;;;5045722;28;20282;-68
2023/02/27 01:17:43;;;;;;;5.95;3.08;;;;;;;;;;5046746;28;20275;-67
2023/02/27 01:20:09;;;;;;;5.00;3.03;;;;;;;;;;5064911;28;20024;-65
2023/02/27 01:22:34;;;;;;;5.53;3.20;;;;;;;;;;5028675;28;20278;-68
2023/02/27 01:24:59;;;;;;;5.20;2.80;;;;;;;;;;5053714;28;20049;-61
2023/02/27 01:27:25;;;;;;;4.97;2.92;;;;;;;;;;5039162;28;20766;-64
2023/02/27 01:29:50;;;;;;;5.53;2.90;;;;;;;;;;5062731;28;20217;-69
2023/02/27 01:32:15;;;;;;;5.22;3.03;;;;;;;;;;5046568;28;20059;-66
2023/02/27 01:34:40;;;;;;;5.40;2.70;;;;;;;;;;5060056;28;20029;-69
2023/02/27 01:37:06;;;;;;;4.73;2.97;;;;;;;;;;5046580;28;20263;-70
2023/02/27 01:39:31;;;;;;;4.82;2.78;;;;;;;;;;5027034;28;20042;-68
2023/02/27 01:41:57;;;;;;;6.15;3.10;;;;;;;;;;5064629;28;20044;-70
2023/02/27 01:44:24;;;;;;;4.85;2.88;;;;;;;;;;5053309;28;20040;-70
2023/02/27 01:46:49;;;;;;;5.38;3.03;;;;;;;;;;5044458;28;20025;-65
2023/02/27 01:49:16;;;;;;;4.73;2.93;;;;;;;;;;5045702;28;20039;-69
2023/02/27 01:51:51;;;;;;;5.30;3.10;;;;;;;;;;5017377;28;20299;-70
2023/02/27 01:54:17;;;;;;;4.88;2.92;;;;;;;;;;5051563;28;20496;-71
2023/02/27 01:56:42;;;;;;;6.75;3.50;;;;;;;;;;5019137;28;20037;-65
2023/02/27 01:59:08;;;;;;;6.17;3.20;;;;;;;;;;5064398;28;20040;-60
2023/02/27 02:01:33;;;;;;;6.00;2.83;;;;;;;;;;5046695;28;20271;-65
2023/02/27 02:04:17;;;;;;;4.90;3.60;;;;;;;;;;5062812;28;20057;-65
2023/02/27 02:06:43;;;;;;;6.30;3.13;;;;;;;;;;5061195;28;20135;-68
2023/02/27 02:09:09;;;;;;;5.03;3.05;;;;;;;;;;5029931;28;20005;-68
2023/02/27 02:11:34;;;;;;;4.80;2.92;;;;;;;;;;5041381;28;20023;-70
2023/02/27 02:14:01;;;;;;;4.73;3.00;;;;;;;;;;5064397;28;20463;-68
2023/02/27 02:16:43;;;;;;;5.22;2.75;;;;;;;;;;5045247;28;20282;-64
2023/02/27 02:19:26;;;;;;;5.30;3.13;;;;;;;;;;5043698;28;20025;-64
2023/02/27 02:21:58;;;;;;;5.20;3.28;;;;;;;;;;5063095;28;20187;-71
2023/02/27 02:24:23;;;;;;;6.18;3.28;;;;;;;;;;5062200;28;20494;-70
2023/02/27 02:26:58;;;;;;;6.13;2.95;;;;;;;;;;5061304;28;20040;-67
2023/02/27 02:29:42;;;;;;;6.28;3.03;;;;;;;;;;5058058;28;20060;-65
2023/02/27 02:32:13;;;;;;;5.18;2.90;;;;;;;;;;5068042;28;20124;-68
2023/02/27 02:34:57;;;;;;;5.43;3.05;;;;;;;;;;5039379;28;20100;-68
2023/02/27 02:37:31;;;;;;;5.82;3.10;;;;;;;;;;5047907;28;20045;-70
2023/02/27 02:40:16;;;;;;;6.00;3.25;;;;;;;;;;5049047;28;20608;-69
2023/02/27 02:42:42;;;;;;;4.72;3.10;;;;;;;;;;5067499;28;20044;-66
2023/02/27 02:45:28;;;;;;;6.65;3.47;;;;;;;;;;5041042;28;20074;-63
2023/02/27 02:48:02;;;;;;;8.23;3.15;;;;;;;;;;5037456;28;20064;-69
2023/02/27 02:50:29;;;;;;;4.75;3.45;;;;;;;;;;5048528;28;20052;-70
2023/02/27 02:53:03;;;;;;;5.80;3.22;;;;;;;;;;5047706;28;20036;-71
2023/02/27 02:55:33;;;;;;;5.32;3.08;;;;;;;;;;5045114;28;20052;-67
2023/02/27 02:58:27;;;;;;;5.95;3.22;;;;;;;;;;5040381;28;20095;-67
2023/02/27 03:01:02;;;;;;;5.22;3.20;;;;;;;;;;5049184;28;20510;-67
2023/02/27 03:03:28;;;;;;;4.57;2.90;;;;;;;;;;5046459;28;20048;-69
2023/02/27 03:05:55;;;;;;;4.93;2.70;;;;;;;;;;5037269;28;20055;-65
2023/02/27 03:08:21;;;;;;;5.68;3.40;;;;;;;;;;5048083;28;20082;-69
2023/02/27 03:10:46;;;;;;;6.07;2.83;;;;;;;;;;5065264;28;20029;-72
2023/02/27 03:13:13;;;;;;;4.87;3.03;;;;;;;;;;5067318;28;20128;-68
2023/02/27 03:15:46;;;;;;;5.55;3.03;;;;;;;;;;5048858;28;20088;-68
2023/02/27 03:18:16;;;;;;;5.18;3.70;;;;;;;;;;5066439;28;20043;-64
2023/02/27 03:20:42;;;;;;;4.60;2.90;;;;;;;;;;5066457;28;20047;-71
2023/02/27 03:23:12;;;;;;;4.30;2.90;;;;;;;;;;5065713;28;20515;-70
2023/02/27 03:25:37;;;;;;;4.80;2.80;;;;;;;;;;5062602;28;20108;-71
2023/02/27 03:28:03;;;;;;;4.93;2.90;;;;;;;;;;5047012;28;20464;-67
2023/02/27 03:30:33;;;;;;;5.85;3.13;;;;;;;;;;5048859;28;20282;-69
2023/02/27 03:33:04;;;;;;;4.70;2.63;;;;;;;;;;5066726;28;20031;-67
2023/02/27 03:35:31;;;;;;;4.40;3.03;;;;;;;;;;5048834;28;20031;-70
2023/02/27 03:37:58;;;;;;;5.00;2.75;;;;;;;;;;5065695;28;20094;-65
2023/02/27 03:40:34;;;;;;;4.65;2.90;;;;;;;;;;5066859;28;20078;-64
2023/02/27 03:43:20;;;;;;;4.65;2.85;;;;;;;;;;5036743;28;20080;-67
2023/02/27 03:45:57;;;;;;;5.40;3.22;;;;;;;;;;5032220;28;20033;-67
2023/02/27 03:48:22;;;;;;;5.10;2.72;;;;;;;;;;5065262;28;20017;-71
2023/02/27 03:50:47;;;;;;;5.63;3.17;;;;;;;;;;5066406;28;20055;-62
2023/02/27 03:53:16;;;;;;;4.32;3.42;;;;;;;;;;5040876;28;20255;-69
2023/02/27 03:55:42;;;;;;;4.57;2.90;;;;;;;;;;5061399;28;20040;-62
2023/02/27 03:58:08;;;;;;;6.05;3.13;;;;;;;;;;5037339;28;20482;-66
2023/02/27 04:00:33;;;;;;;5.32;3.28;;;;;;;;;;5067406;28;20131;-67
2023/02/27 04:02:58;;;;;;;5.47;2.90;;;;;;;;;;5048103;28;20038;-69
2023/02/27 04:05:24;;;;;;;4.88;2.80;;;;;;;;;;5050564;28;20278;-65
2023/02/27 04:07:55;;;;;;;4.88;2.88;;;;;;;;;;5048848;28;20560;-67
2023/02/27 04:10:24;;;;;;;4.97;2.88;;;;;;;;;;5066627;28;20028;-64
2023/02/27 04:12:58;;;;;;;5.22;2.75;;;;;;;;;;5041852;28;20124;-68
2023/02/27 04:15:33;;;;;;;4.35;2.80;;;;;;;;;;5066138;28;20056;-68
2023/02/27 04:18:04;;;;;;;6.45;3.30;;;;;;;;;;5047484;28;20098;-67
2023/02/27 04:20:32;;;;;;;5.25;2.88;;;;;;;;;;5063675;28;20053;-64
2023/02/27 04:22:59;;;;;;;4.57;2.90;;;;;;;;;;5064302;28;20052;-70
2023/02/27 04:25:30;;;;;;;3.60;2.50;;;;;;;;;;5061716;28;20107;-69
2023/02/27 04:28:10;;;;;;;5.05;2.88;;;;;;;;;;5047260;28;20055;-68
2023/02/27 04:30:39;;;;;;;4.18;2.50;;;;;;;;;;5047038;28;20063;-64
2023/02/27 04:33:09;;;;;;;4.10;2.60;;;;;;;;;;5051860;28;20052;-64
2023/02/27 04:35:53;;;;;;;4.80;2.70;;;;;;;;;;5054242;28;20048;-70
2023/02/27 04:38:19;;;;;;;4.38;2.50;;;;;;;;;;5034173;28;20035;-69
2023/02/27 04:40:46;;;;;;;3.75;2.63;;;;;;;;;;5044755;28;20029;-65
2023/02/27 04:43:11;;;;;;;4.80;2.88;;;;;;;;;;5053208;28;20461;-70
2023/02/27 04:45:40;;;;;;;4.80;2.40;;;;;;;;;;5037186;28;20040;-67
2023/02/27 04:48:06;;;;;;;3.88;2.75;;;;;;;;;;5045391;28;20279;-67
2023/02/27 04:50:33;;;;;;;4.13;2.70;;;;;;;;;;5040240;28;20071;-69
2023/02/27 04:53:02;;;;;;;5.38;3.10;;;;;;;;;;5046974;28;20497;-70
2023/02/27 04:55:29;;;;;;;4.35;2.38;;;;;;;;;;5043772;28;20491;-67
2023/02/27 04:57:58;;;;;;;4.80;2.30;;;;;;;;;;5061913;28;20457;-70
2023/02/27 05:00:23;;;;;;;3.30;2.47;;;;;;;;;;5047396;28;20459;-70
2023/02/27 05:02:50;;;;;;;4.15;2.70;;;;;;;;;;5046520;28;20051;-68
2023/02/27 05:05:17;;;;;;;7.10;2.70;;;;;;;;;;5045571;28;20484;-67
2023/02/27 05:07:48;;;;;;;7.70;3.10;;;;;;;;;;5046013;28;20029;-71
2023/02/27 05:10:33;;;;;;;7.60;2.67;;;;;;;;;;5033940;28;20024;-67
2023/02/27 05:12:58;;;;;;;10.60;3.00;;;;;;;;;;5046094;28;20036;-65
2023/02/27 05:15:35;;;;;;;11.57;3.33;;;;;;;;;;5031084;28;20032;-69
2023/02/27 05:18:07;;;;;;;10.35;3.28;;;;;;;;;;5031998;28;20131;-69
2023/02/27 05:20:52;;;;;;;9.82;3.13;;;;;;;;;;5046025;28;20538;-67
2023/02/27 05:23:33;;;;;;;9.38;3.15;;;;;;;;;;5063706;28;20066;-67
2023/02/27 05:26:10;;;;;;;11.55;3.42;;;;;;;;;;5056850;28;20113;-64
2023/02/27 05:28:37;;;;;;;10.25;3.50;;;;;;;;;;5044663;28;20045;-68
2023/02/27 05:31:14;;;;;;;15.10;4.20;;;;;;;;;;5063342;28;20047;-69
2023/02/27 05:34:06;;;;;;;8.15;3.20;;;;;;;;;;5049193;28;20027;-71
2023/02/27 05:36:35;;;;;;;12.75;3.03;;;;;;;;;;5058720;28;20044;-72
2023/02/27 05:39:05;;;;;;;9.63;3.40;;;;;;;;;;5046245;28;20048;-69
2023/02/27 05:41:32;;;;;;;14.30;3.90;;;;;;;;;;5045121;28;20040;-63
2023/02/27 05:44:00;;;;;;;10.27;2.92;;;;;;;;;;5045185;28;20113;-67
2023/02/27 05:46:26;;;;;;;12.40;3.65;;;;;;;;;;5040100;28;20548;-66
2023/02/27 05:48:53;;;;;;;13.10;3.75;;;;;;;;;;5042442;28;20497;-65
2023/02/27 05:51:18;;;;;;;10.25;3.20;;;;;;;;;;5042866;28;20052;-66
2023/02/27 05:53:45;;;;;;;10.73;3.30;;;;;;;;;;5043606;28;20493;-69
2023/02/27 05:56:11;;;;;;;11.00;3.53;;;;;;;;;;5022065;28;20091;-65
2023/02/27 05:58:43;;;;;;;12.10;3.80;;;;;;;;;;5030200;28;20138;-70
2023/02/27 06:01:09;;;;;;;12.13;3.05;;;;;;;;;;5041188;28;20104;-68
2023/02/27 06:03:34;;;;;;;9.05;3.08;;;;;;;;;;5053087;28;20182;-71
2023/02/27 06:06:00;;;;;;;8.25;3.25;;;;;;;;;;5038032;28;20082;-66
2023/02/27 06:08:25;;;;;;;10.05;3.38;;;;;;;;;;5023707;28;20017;-71
2023/02/27 06:10:51;;;;;;;9.20;3.17;;;;;;;;;;5035117;28;20459;-69
2023/02/27 06:13:16;;;;;;;13.00;3.22;;;;;;;;;;5046090;28;20028;-70
2023/02/27 06:15:44;;;;;;;10.18;3.13;;;;;;;;;;5063135;28;20082;-72
2023/02/27 06:18:10;;;;;;;14.45;3.45;;;;;;;;;;5061622;28;20086;-69
2023/02/27 06:20:35;;;;;;;11.10;3.28;;;;;;;;;;5025621;28;20049;-68
2023/02/27 06:23:00;;;;;;;12.68;3.42;;;;;;;;;;5045853;28;20135;-67
2023/02/27 06:25:26;;;;;;;12.65;3.33;;;;;;;;;;5062685;28;20076;-64
2023/02/27 06:27:51;;;;;;;13.20;3.40;;;;;;;;;;5064934;28;20040;-71
2023/02/27 06:30:16;;;;;;;14.77;3.50;;;;;;;;;;5064810;28;20298;-70
2023/02/27 06:32:42;;;;;;;12.52;3.78;;;;;;;;;;5029671;28;20083;-71
2023/02/27 06:35:07;;;;;;;10.53;3.27;;;;;;;;;;5061849;28;20055;-70
2023/02/27 06:37:32;;;;;;;10.45;2.90;;;;;;;;;;5044132;28;20604;-73
2023/02/27 06:39:57;;;;;;;7.50;3.03;;;;;;;;;;5065441;28;20049;-74
2023/02/27 06:42:23;;;;;;;13.87;3.40;;;;;;;;;;5047271;28;20421;-67
2023/02/27 06:44:48;;;;;;;10.57;3.22;;;;;;;;;;5039237;28;20295;-66
2023/02/27 06:47:13;;;;;;;6.07;2.97;;;;;;;;;;5047739;28;20024;-65
2023/02/27 06:49:38;;;;;;;12.60;3.17;;;;;;;;;;5030689;28;20043;-71
2023/02/27 06:52:04;;;;;;;12.10;3.10;;;;;;;;;;5046909;28;20512;-71
2023/02/27 06:54:29;;;;;;;15.30;4.00;;;;;;;;;;5028710;28;20044;-64
2023/02/27 06:56:55;;;;;;;11.43;3.08;;;;;;;;;;5027628;28;20039;-68
2023/02/27 06:59:20;;;;;;;13.70;3.28;;;;;;;;;;5065401;28;20453;-64
2023/02/27 07:01:45;;;;;;;10.98;3.45;;;;;;;;;;5046294;28;20182;-69
2023/02/27 07:04:12;;;;;;;8.80;2.70;;;;;;;;;;5043447;28;20396;-68
2023/02/27 07:06:37;;;;;;;10.95;3.28;;;;;;;;;;5063838;28;20123;-66
2023/02/27 07:09:02;;;;;;;9.47;3.00;;;;;;;;;;5028723;28;20472;-65
2023/02/27 07:11:28;;;;;;;12.07;3.33;;;;;;;;;;5027229;28;20271;-68
2023/02/27 07:13:53;;;;;;;10.50;3.50;;;;;;;;;;5064136;28;20044;-70
2023/02/27 07:16:19;;;;;;;14.57;3.37;;;;;;;;;;5047650;28;20521;-71
2023/02/27 07:18:44;;;;;;;9.40;2.80;;;;;;;;;;5045692;28;20267;-66
2023/02/27 07:21:09;;;;;;;10.33;3.17;;;;;;;;;;5030237;28;20271;-70
2023/02/27 07:23:34;;;;;;;11.60;3.27;;;;;;;;;;5065870;28;20715;-70
2023/02/27 07:26:00;;;;;;;10.82;3.42;;;;;;;;;;5025206;28;20056;-62
2023/02/27 07:28:25;;;;;;;9.60;3.03;;;;;;;;;;5043990;28;20086;-69
2023/02/27 07:30:52;;;;;;;9.03;3.10;;;;;;;;;;5043723;28;20270;-69
2023/02/27 07:33:17;;;;;;;8.48;2.70;;;;;;;;;;5032101;28;20051;-67
2023/02/27 07:35:43;;;;;;;8.57;2.80;;;;;;;;;;5049473;28;20029;-70
2023/02/27 07:38:08;;;;;;;10.70;2.80;;;;;;;;;;5067806;28;20274;-70
2023/02/27 07:40:34;;;;;;;22.55;3.65;;;;;;;;;;5063326;28;20416;-66
2023/02/27 07:42:59;;;;;;;11.70;3.57;;;;;;;;;;5064153;28;20104;-67
2023/02/27 07:45:24;;;;;;;12.27;3.23;;;;;;;;;;5063425;28;20636;-69
2023/02/27 07:47:49;;;;;;;11.00;3.13;;;;;;;;;;5046943;28;20279;-65
2023/02/27 07:50:15;;;;;;;9.30;3.43;;;;;;;;;;5066787;28;20407;-66
2023/02/27 07:52:41;;;;;;;9.52;2.90;;;;;;;;;;5064882;28;20421;-66
2023/02/27 07:55:06;;;;;;;7.05;2.92;;;;;;;;;;5048994;28;20029;-72
2023/02/27 07:57:32;;;;;;;8.25;2.63;;;;;;;;;;5044912;28;20048;-70
2023/02/27 07:59:57;;;;;;;8.10;2.83;;;;;;;;;;5044594;28;20027;-68
2023/02/27 08:02:23;;;;;;;10.60;2.97;;;;;;;;;;5048118;28;20028;-67
2023/02/27 08:04:48;;;;;;;7.70;2.70;;;;;;;;;;5064028;28;20041;-67
2023/02/27 08:07:13;;;;;;;10.30;2.60;;;;;;;;;;5048095;28;20274;-63
2023/02/27 08:09:38;;;;;;;8.13;2.67;;;;;;;;;;5064543;28;20746;-64
2023/02/27 08:12:04;;;;;;;8.67;2.90;;;;;;;;;;5063995;28;20369;-66
2023/02/27 08:14:29;;;;;;;7.30;2.80;;;;;;;;;;5062342;28;20291;-70
2023/02/27 08:16:54;;;;;;;7.63;2.97;;;;;;;;;;5045733;28;20037;-73
2023/02/27 08:19:19;;;;;;;7.67;2.70;;;;;;;;;;5056391;28;20120;-65
2023/02/27 08:21:44;;;;;;;8.03;2.50;;;;;;;;;;5051682;28;20029;-65
2023/02/27 08:24:10;;;;;;;8.10;2.57;;;;;;;;;;5061781;28;20307;-66
2023/02/27 08:26:35;;;;;;;7.27;2.17;;;;;;;;;;5062926;28;20060;-67
2023/02/27 08:29:00;;;;;;;9.50;2.80;;;;;;;;;;5063401;28;21082;-63
2023/02/27 08:31:25;;;;;;;4.53;2.60;;;;;;;;;;5045742;28;20267;-69
2023/02/27 08:33:51;;;;;;;6.17;2.60;;;;;;;;;;5057734;28;20047;-63
2023/02/27 08:36:16;;;;;;;6.13;2.33;;;;;;;;;;5065482;28;20401;-67
2023/02/27 08:38:42;;;;;;;6.78;2.40;;;;;;;;;;5052564;28;20272;-68
2023/02/27 08:41:07;;;;;;;4.88;2.30;;;;;;;;;;5048437;28;20118;-68
2023/02/27 08:43:32;;;;;;;4.90;2.10;;;;;;;;;;5063936;28;20560;-67
2023/02/27 08:45:57;;;;;;;7.83;3.67;;;;;;;;;;5066387;28;20420;-69
2023/02/27 08:48:23;;;;;;;5.47;2.20;;;;;;;;;;5040824;28;20311;-69
2023/02/27 08:50:49;;;;;;;5.75;1.90;;;;;;;;;;5045707;28;20044;-70
2023/02/27 08:53:14;;;;;;;8.18;2.85;;;;;;;;;;5065246;28;20478;-68
2023/02/27 08:55:39;;;;;;;6.20;2.10;;;;;;;;;;5046062;28;20128;-66
2023/02/27 08:58:04;;;;;;;5.93;2.10;;;;;;;;;;5047734;28;20270;-65
2023/02/27 09:00:31;;;;;;;5.03;2.10;;;;;;;;;;5060895;28;20055;-67
2023/02/27 09:02:56;;;;;;;6.63;2.10;;;;;;;;;;5045248;28;20386;-68
2023/02/27 09:05:21;;;;;;;6.30;2.27;;;;;;;;;;5048866;28;20533;-68
2023/02/27 09:07:47;;;;;;;4.63;2.22;;;;;;;;;;5053731;28;20437;-70
2023/02/27 09:10:12;;;;;;;6.28;2.33;;;;;;;;;;5040188;28;20640;-67
2023/02/27 09:12:37;;;;;;;5.20;2.00;;;;;;;;;;5064669;28;20087;-67
2023/02/27 09:15:04;;;;;;;4.95;1.92;;;;;;;;;;5066290;28;20644;-71
2023/02/27 09:17:29;;;;;;;5.68;1.83;;;;;;;;;;5041672;28;20063;-67
2023/02/27 09:19:55;;;;;;;4.25;2.03;;;;;;;;;;5041045;28;20036;-69
2023/02/27 09:22:20;;;;;;;4.78;1.95;;;;;;;;;;5065468;28;20036;-60
2023/02/27 09:24:45;;;;;;;5.28;2.42;;;;;;;;;;5064774;28;20040;-69
2023/02/27 09:27:10;;;;;;;5.23;2.03;;;;;;;;;;5044791;28;20055;-68
2023/02/27 09:29:35;;;;;;;4.43;1.83;;;;;;;;;;5063951;28;20287;-67
2023/02/27 09:32:01;;;;;;;3.67;1.80;;;;;;;;;;5048211;28;20086;-69
2023/02/27 09:34:26;;;;;;;4.35;1.75;;;;;;;;;;5065922;28;20056;-63
2023/02/27 09:36:51;;;;;;;6.60;1.90;;;;;;;;;;5039120;28;20794;-68
2023/02/27 09:39:16;;;;;;;4.87;1.90;;;;;;;;;;5042728;28;20507;-63
2023/02/27 09:41:45;;;;;;;3.78;1.75;;;;;;;;;;5065572;28;20275;-69
2023/02/27 09:44:33;;;;;;;3.72;1.90;;;;;;;;;;5055742;28;20516;-64
2023/02/27 09:46:59;;;;;;;5.05;1.98;;;;;;;;;;5052409;28;20033;-67
2023/02/27 09:49:25;;;;;;;4.30;1.90;;;;;;;;;;5049830;28;20031;-67
2023/02/27 09:51:51;;;;;;;4.15;1.92;;;;;;;;;;5047471;28;20348;-68
2023/02/27 09:54:16;;;;;;;4.43;1.63;;;;;;;;;;5046515;28;20476;-67
2023/02/27 09:56:45;;;;;;;3.57;1.60;;;;;;;;;;5062231;28;20038;-69
2023/02/27 09:59:12;;;;;;;4.00;1.88;;;;;;;;;;5063204;28;20763;-67
2023/02/27 10:01:41;;;;;;;4.00;1.63;;;;;;;;;;5042376;28;20712;-71
2023/02/27 10:04:18;;;;;;;3.85;1.70;;;;;;;;;;5065134;28;20048;-69
2023/02/27 10:06:49;;;;;;;4.72;1.70;;;;;;;;;;5053133;28;20059;-60
2023/02/27 10:09:14;;;;;;;4.03;1.73;;;;;;;;;;5050139;28;20028;-67
2023/02/27 10:12:18;;;;;;;3.30;1.57;;;;;;;;;;5037664;28;20015;-66
2023/02/27 10:14:51;;;;;;;3.58;1.95;;;;;;;;;;5011058;28;20054;-64
2023/02/27 10:17:23;;;;;;;5.95;2.22;;;;;;;;;;4990709;28;20033;-68
2023/02/27 10:19:49;;;;;;;3.33;1.20;;;;;;;;;;5037399;28;20068;-64
2023/02/27 10:22:17;;;;;;;4.47;1.75;;;;;;;;;;5047596;28;20094;-64
2023/02/27 10:24:53;;;;;;;2.65;1.45;;;;;;;;;;5047471;28;20497;-64
2023/02/27 10:27:19;;;;;;;3.88;1.70;;;;;;;;;;5046826;28;20043;-66
2023/02/27 10:29:44;;;;;;;2.85;1.50;;;;;;;;;;5065224;28;20037;-66
2023/02/27 10:32:29;;;;;;;4.33;1.60;;;;;;;;;;5053957;28;20485;-65
2023/02/27 10:34:57;;;;;;;3.30;1.40;;;;;;;;;;5053424;28;20527;-67
2023/02/27 10:37:23;;;;;;;4.03;1.85;;;;;;;;;;5046791;28;20043;-68
2023/02/27 10:39:55;;;;;;;3.08;1.38;;;;;;;;;;5040880;28;20470;-68
2023/02/27 10:42:21;;;;;;;4.55;1.80;;;;;;;;;;5043165;28;20503;-64
2023/02/27 10:44:52;;;;;;;3.80;1.70;;;;;;;;;;5065306;28;20041;-68
2023/02/27 10:47:17;;;;;;;3.40;1.40;;;;;;;;;;5050691;28;20314;-65
2023/02/27 10:49:42;;;;;;;3.43;1.50;;;;;;;;;;5051266;28;20179;-68
2023/02/27 10:52:09;;;;;;;2.60;1.45;;;;;;;;;;5068364;28;20083;-74
2023/02/27 10:54:34;;;;;;;3.63;1.40;;;;;;;;;;5050696;28;20035;-71
2023/02/27 10:57:01;;;;;;;3.97;1.35;;;;;;;;;;5033909;28;20025;-72
2023/02/27 10:59:27;;;;;;;2.50;1.20;;;;;;;;;;5050918;28;20024;-67
2023/02/27 11:02:05;;;;;;;3.15;1.63;;;;;;;;;;5041315;28;20386;-65
2023/02/27 11:04:30;;;;;;;2.70;1.55;;;;;;;;;;5066652;28;20128;-70
2023/02/27 11:06:55;;;;;;;3.40;1.80;;;;;;;;;;5049989;28;20455;-72
2023/02/27 11:09:21;;;;;;;3.63;1.43;;;;;;;;;;5068245;28;20457;-69
2023/02/27 11:11:46;;;;;;;2.45;1.30;;;;;;;;;;5060728;28;20282;-66
2023/02/27 11:14:18;;;;;;;4.10;1.50;;;;;;;;;;5057902;28;20433;-70
2023/02/27 11:16:50;;;;;;;3.10;1.35;;;;;;;;;;5062861;28;20549;-69
2023/02/27 11:19:24;;;;;;;3.08;1.77;;;;;;;;;;5021531;28;20052;-67
2023/02/27 11:22:08;;;;;;;3.42;1.38;;;;;;;;;;5067091;28;20058;-67
2023/02/27 11:24:33;;;;;;;2.20;1.10;;;;;;;;;;5065929;28;20082;-66
2023/02/27 11:27:02;;;;;;;2.50;1.20;;;;;;;;;;5067389;28;20040;-65
2023/02/27 11:29:27;;;;;;;2.42;1.55;;;;;;;;;;5039598;28;20040;-65
2023/02/27 11:31:54;;;;;;;2.38;1.13;;;;;;;;;;5048530;28;20043;-70
2023/02/27 11:34:23;;;;;;;2.60;1.30;;;;;;;;;;5031214;28;20035;-69
2023/02/27 11:36:49;;;;;;;2.30;1.52;;;;;;;;;;5042181;28;20353;-69
2023/02/27 11:39:21;;;;;;;3.67;1.45;;;;;;;;;;5029036;28;20056;-70
2023/02/27 11:41:46;;;;;;;2.90;1.42;;;;;;;;;;5062015;28;20157;-66
2023/02/27 11:44:12;;;;;;;2.30;1.27;;;;;;;;;;5069697;28;20052;-68
2023/02/27 11:46:38;;;;;;;2.20;1.20;;;;;;;;;;5040485;28;20032;-73
2023/02/27 11:49:26;;;;;;;2.47;1.15;;;;;;;;;;5038825;28;20482;-66
2023/02/27 11:52:11;;;;;;;2.53;1.10;;;;;;;;;;5022918;28;20056;-65
2023/02/27 11:54:36;;;;;;;2.47;1.42;;;;;;;;;;5039182;28;20044;-70
2023/02/27 11:57:08;;;;;;;3.83;1.42;;;;;;;;;;5053417;28;20595;-73
2023/02/27 11:59:39;;;;;;;1.88;1.20;;;;;;;;;;5069420;28;20040;-66
2023/02/27 12:02:06;;;;;;;2.03;1.17;;;;;;;;;;5068101;28;20036;-66
2023/02/27 12:04:40;;;;;;;2.08;1.10;;;;;;;;;;5043211;28;20512;-67
2023/02/27 12:07:25;;;;;;;2.35;1.40;;;;;;;;;;5049381;28;20033;-69
2023/02/27 12:10:10;;;;;;;2.70;1.23;;;;;;;;;;5038101;28;20090;-67
2023/02/27 12:12:52;;;;;;;2.05;1.00;;;;;;;;;;5064433;28;20039;-72
2023/02/27 12:15:23;;;;;;;2.00;1.25;;;;;;;;;;5048485;28;20025;-70
2023/02/27 12:18:20;;;;;;;2.15;1.10;;;;;;;;;;5047701;28;20013;-66
2023/02/27 12:20:52;;;;;;;2.50;1.40;;;;;;;;;;5021995;28;20051;-70
2023/02/27 12:23:40;;;;;;;1.90;1.20;;;;;;;;;;5046187;28;20044;-67
2023/02/27 12:26:07;;;;;;;2.67;1.05;;;;;;;;;;5055922;28;20040;-68
2023/02/27 12:28:35;;;;;;;2.33;1.33;;;;;;;;;;5045156;28;20472;-66
2023/02/27 12:31:06;;;;;;;3.70;1.73;;;;;;;;;;5065081;28;20059;-66
2023/02/27 12:33:51;;;;;;;5.40;1.25;;;;;;;;;;5048476;28;20036;-65
2023/02/27 12:36:17;;;;;;;1.88;1.10;;;;;;;;;;5041767;28;20463;-67
2023/02/27 12:38:42;;;;;;;2.80;1.30;;;;;;;;;;5048397;28;20557;-65
2023/02/27 12:41:17;;;;;;;3.20;1.20;;;;;;;;;;5066498;28;20559;-66
2023/02/27 12:43:45;;;;;;;2.17;1.15;;;;;;;;;;5066809;28;20306;-66
2023/02/27 12:46:16;;;;;;;2.20;0.95;;;;;;;;;;5067166;28;20035;-66
2023/02/27 12:49:05;;;;;;;1.98;1.27;;;;;;;;;;5060759;28;20113;-69
2023/02/27 12:51:45;;;;;;;1.92;1.40;;;;;;;;;;5050161;28;20037;-68
2023/02/27 12:54:26;;;;;;;2.97;1.45;;;;;;;;;;5039482;28;20507;-69
2023/02/27 12:56:57;;;;;;;2.22;1.10;;;;;;;;;;5058707;28;20127;-64
2023/02/27 12:59:29;;;;;;;2.35;1.42;;;;;;;;;;5064013;28;20225;-68
2023/02/27 13:02:13;;;;;;;1.50;1.00;;;;;;;;;;5065897;28;20322;-69
2023/02/27 13:04:45;;;;;;;2.25;1.30;;;;;;;;;;5055626;28;20060;-72
2023/02/27 13:07:16;;;;;;;2.40;1.17;;;;;;;;;;5048313;28;20039;-73
2023/02/27 13:09:47;;;;;;;4.35;1.40;;;;;;;;;;5064292;28;20039;-69
2023/02/27 13:12:16;;;;;;;1.77;1.10;;;;;;;;;;5046374;28;20040;-68
2023/02/27 13:14:41;;;;;;;2.95;1.30;;;;;;;;;;5058552;28;20380;-69
2023/02/27 13:17:09;;;;;;;3.37;1.50;;;;;;;;;;5066556;28;20036;-68
2023/02/27 13:19:54;;;;;;;1.88;0.88;;;;;;;;;;5047154;28;20032;-63
2023/02/27 13:22:26;;;;;;;1.52;1.10;;;;;;;;;;5048391;28;20060;-64
2023/02/27 13:24:52;;;;;;;2.17;1.23;;;;;;;;;;5055289;28;20044;-69
2023/02/27 13:27:19;;;;;;;2.20;1.20;;;;;;;;;;5064946;28;20047;-67
2023/02/27 13:29:46;;;;;;;1.70;1.13;;;;;;;;;;5064181;28;20314;-65
2023/02/27 13:32:12;;;;;;;4.25;1.25;;;;;;;;;;5065194;28;20015;-70
2023/02/27 13:34:44;;;;;;;3.15;1.27;;;;;;;;;;5057667;28;20103;-70
2023/02/27 13:37:09;;;;;;;2.55;1.42;;;;;;;;;;5046326;28;20027;-66
2023/02/27 13:39:38;;;;;;;3.00;1.10;;;;;;;;;;5065175;28;20009;-67
2023/02/27 13:42:04;;;;;;;2.17;1.30;;;;;;;;;;5066782;28;20254;-66
2023/02/27 13:44:36;;;;;;;2.05;1.10;;;;;;;;;;5066742;28;20369;-73
2023/02/27 13:47:20;;;;;;;2.28;1.10;;;;;;;;;;5049219;28;20033;-69
2023/02/27 13:49:45;;;;;;;3.50;1.45;;;;;;;;;;5054698;28;20064;-71
2023/02/27 13:52:10;;;;;;;2.33;1.33;;;;;;;;;;5067534;28;20194;-71
2023/02/27 13:54:39;;;;;;;2.10;1.13;;;;;;;;;;5048525;28;20266;-72
2023/02/27 13:57:15;;;;;;;2.58;1.45;;;;;;;;;;5061379;28;20647;-63
2023/02/27 13:59:40;;;;;;;2.53;1.10;;;;;;;;;;5061089;28;20033;-71
2023/02/27 14:02:24;;;;;;;2.30;1.10;;;;;;;;;;5029286;28;20039;-65
2023/02/27 14:04:50;;;;;;;3.13;1.27;;;;;;;;;;5031638;28;20154;-67
2023/02/27 14:07:17;;;;;;;2.17;1.40;;;;;;;;;;5047993;28;20060;-68
2023/02/27 14:09:43;;;;;;;3.20;1.38;;;;;;;;;;5058306;28;20410;-69
2023/02/27 14:12:27;;;;;;;3.10;1.08;;;;;;;;;;5065365;28;20044;-66
2023/02/27 14:14:52;;;;;;;2.80;1.30;;;;;;;;;;5042339;28;20025;-64
2023/02/27 14:17:36;;;;;;;2.20;1.10;;;;;;;;;;5059774;28;20039;-68
2023/02/27 14:20:10;;;;;;;2.67;1.20;;;;;;;;;;5064215;28;20089;-73
2023/02/27 14:22:40;;;;;;;2.50;1.52;;;;;;;;;;5063751;28;20036;-72
2023/02/27 14:25:25;;;;;;;1.70;1.17;;;;;;;;;;5064362;28;20129;-73
2023/02/27 14:27:54;;;;;;;1.67;1.05;;;;;;;;;;5056030;28;20044;-69
2023/02/27 14:30:30;;;;;;;3.00;1.30;;;;;;;;;;5053310;28;20036;-67
2023/02/27 14:32:57;;;;;;;2.63;1.17;;;;;;;;;;5055122;28;20039;-71
2023/02/27 14:35:22;;;;;;;3.45;1.40;;;;;;;;;;5066716;28;20039;-72
2023/02/27 14:37:47;;;;;;;2.13;1.10;;;;;;;;;;5069169;28;20029;-68
2023/02/27 14:40:31;;;;;;;2.87;1.27;;;;;;;;;;5069943;28;20269;-61
2023/02/27 14:42:59;;;;;;;1.90;1.30;;;;;;;;;;5068976;28;20033;-68
2023/02/27 14:45:27;;;;;;;2.33;1.13;;;;;;;;;;5069169;28;20035;-72
2023/02/27 14:47:52;;;;;;;3.60;1.38;;;;;;;;;;5068053;28;20148;-65
2023/02/27 14:50:22;;;;;;;3.22;1.30;;;;;;;;;;5058719;28;20076;-72